createdAt,value
2017-12-24T00:00:44.025Z,18.10
2017-12-24T00:03:18.937Z,19.67
2017-12-24T00:05:53.908Z,19.13
2017-12-24T00:08:28.919Z,21.53
2017-12-24T00:11:03.980Z,18.67
2017-12-24T00:19:40.903Z,19.10
2017-12-24T00:22:15.900Z,20.53
2017-12-24T00:24:50.781Z,18.17
2017-12-24T00:27:25.561Z,21.53
2017-12-24T00:30:00.652Z,22.30
2017-12-24T00:32:35.614Z,20.77
2017-12-24T00:35:10.447Z,22.67
2017-12-24T00:37:45.291Z,17.17
2017-12-24T00:40:19.962Z,17.67
2017-12-24T00:42:54.998Z,22.83
2017-12-24T00:45:29.360Z,22.47
2017-12-24T00:48:04.421Z,21.37
2017-12-24T00:50:40.125Z,21.53
2017-12-24T00:53:15.402Z,22.97
2017-12-24T00:55:50.367Z,24.83
2017-12-24T01:10:44.348Z,24.60
2017-12-24T01:13:18.815Z,21.13
2017-12-24T01:15:54.560Z,27.07
2017-12-24T01:18:28.924Z,26.33
2017-12-24T01:21:03.791Z,28.80
2017-12-24T01:23:38.570Z,28.47
2017-12-24T01:26:13.412Z,28.37
2017-12-24T01:28:48.125Z,20.60
2017-12-24T01:34:23.220Z,28.73
2017-12-24T01:36:58.011Z,26.10
2017-12-24T01:39:32.829Z,26.63
2017-12-24T01:42:07.882Z,27.77
2017-12-24T01:44:42.532Z,27.90
2017-12-24T01:47:17.476Z,29.47
2017-12-24T01:49:52.230Z,29.23
2017-12-24T02:04:27.252Z,30.53
2017-12-24T02:07:02.055Z,30.30
2017-12-24T02:09:37.068Z,30.10
2017-12-24T02:12:12.138Z,28.03
2017-12-24T02:14:47.112Z,29.77
2017-12-24T02:17:22.280Z,32.27
2017-12-24T02:19:57.213Z,29.97
2017-12-24T02:22:32.297Z,29.87
2017-12-24T02:25:07.118Z,31.77
2017-12-24T02:27:42.134Z,25.27
2017-12-24T02:30:17.014Z,31.43
2017-12-24T02:32:51.916Z,30.83
2017-12-24T02:35:26.920Z,31.00
2017-12-24T02:38:05.238Z,31.07
2017-12-24T02:40:40.073Z,30.27
2017-12-24T02:43:14.927Z,30.97
2017-12-24T02:45:49.668Z,29.90
2017-12-24T02:48:25.414Z,31.83
2017-12-24T02:51:01.388Z,32.20
2017-12-24T02:53:36.351Z,27.63
2017-12-24T02:56:11.149Z,30.87
2017-12-24T02:58:46.724Z,30.27
2017-12-24T03:01:22.115Z,31.50
2017-12-24T03:03:57.183Z,31.17
2017-12-24T03:06:32.234Z,32.63
2017-12-24T03:09:07.117Z,31.00
2017-12-24T03:11:42.190Z,27.00
2017-12-24T03:14:17.064Z,31.63
2017-12-24T03:16:52.153Z,31.10
2017-12-24T03:22:27.370Z,30.83
2017-12-24T03:25:02.371Z,30.17
2017-12-24T03:27:37.326Z,31.10
2017-12-24T03:30:12.447Z,28.93
2017-12-24T03:32:47.172Z,30.23
2017-12-24T03:35:22.181Z,30.73
2017-12-24T03:37:56.983Z,28.70
2017-12-24T03:40:32.925Z,28.87
2017-12-24T03:46:08.348Z,27.80
2017-12-24T03:48:43.042Z,27.70
2017-12-24T03:51:17.881Z,30.67
2017-12-24T03:53:52.656Z,26.53
2017-12-24T03:56:27.628Z,28.50
2017-12-24T03:59:02.437Z,25.37
2017-12-24T04:01:37.236Z,22.33
2017-12-24T04:10:30.794Z,30.23
2017-12-24T04:13:05.189Z,26.93
2017-12-24T04:15:40.419Z,23.73
2017-12-24T04:18:15.206Z,28.63
2017-12-24T04:20:50.094Z,27.57
2017-12-24T04:23:24.914Z,19.40
2017-12-24T04:26:00.015Z,26.47
2017-12-24T04:28:34.865Z,28.73
2017-12-24T04:31:12.696Z,25.77
2017-12-24T04:33:47.565Z,26.43
2017-12-24T04:36:22.397Z,26.83
2017-12-24T04:38:57.699Z,29.57
2017-12-24T04:41:32.029Z,28.53
2017-12-24T04:44:07.065Z,28.93
2017-12-24T04:46:42.072Z,28.67
2017-12-24T04:49:16.675Z,27.17
2017-12-24T04:51:51.783Z,29.20
2017-12-24T04:54:26.574Z,27.63
2017-12-24T04:57:02.510Z,28.83
2017-12-24T04:59:36.911Z,24.67
2017-12-24T05:02:12.568Z,26.47
2017-12-24T05:04:47.429Z,26.63
2017-12-24T05:07:26.328Z,29.23
2017-12-24T05:10:01.007Z,28.03
2017-12-24T05:12:35.827Z,22.87
2017-12-24T05:15:10.442Z,24.37
2017-12-24T05:17:44.952Z,28.10
2017-12-24T05:20:19.921Z,24.97
2017-12-24T05:22:54.722Z,26.57
2017-12-24T05:25:29.349Z,24.80
2017-12-24T05:37:05.204Z,24.60
2017-12-24T05:39:40.152Z,24.43
2017-12-24T05:42:14.830Z,25.53
2017-12-24T05:44:50.081Z,26.17
2017-12-24T05:47:24.877Z,17.10
2017-12-24T05:49:59.558Z,24.13
2017-12-24T05:52:34.424Z,24.70
2017-12-24T06:04:09.662Z,27.63
2017-12-24T06:06:44.345Z,25.77
2017-12-24T06:09:19.016Z,24.23
2017-12-24T06:11:54.174Z,26.67
2017-12-24T06:14:29.476Z,24.93
2017-12-24T06:17:04.194Z,25.27
2017-12-24T06:19:38.739Z,25.83
2017-12-24T06:22:13.450Z,25.37
2017-12-24T06:24:51.801Z,24.17
2017-12-24T06:27:26.994Z,27.07
2017-12-24T06:30:01.344Z,28.10
2017-12-24T06:32:36.199Z,26.33
2017-12-24T06:35:10.898Z,25.63
2017-12-24T06:37:46.234Z,23.60
2017-12-24T06:40:21.061Z,25.27
2017-12-24T06:42:55.868Z,24.43
2017-12-24T06:45:34.539Z,22.97
2017-12-24T06:48:09.368Z,25.27
2017-12-24T06:50:44.048Z,24.90
2017-12-24T06:53:18.781Z,22.60
2017-12-24T06:55:53.436Z,22.27
2017-12-24T06:58:28.562Z,23.83
2017-12-24T07:01:03.239Z,23.50
2017-12-24T07:03:37.922Z,23.93
2017-12-24T07:06:12.684Z,22.17
2017-12-24T07:08:47.471Z,22.67
2017-12-24T07:11:22.349Z,23.40
2017-12-24T07:13:57.147Z,23.83
2017-12-24T07:16:31.967Z,22.30
2017-12-24T07:19:06.698Z,22.93
2017-12-24T07:21:42.299Z,20.63
2017-12-24T07:27:17.549Z,23.57
2017-12-24T07:29:52.357Z,22.70
2017-12-24T07:32:27.049Z,25.47
2017-12-24T07:35:01.850Z,20.83
2017-12-24T07:37:36.567Z,24.60
2017-12-24T07:40:11.397Z,23.70
2017-12-24T07:42:46.224Z,23.43
2017-12-24T07:48:21.273Z,19.37
2017-12-24T07:50:56.406Z,22.50
2017-12-24T07:53:31.020Z,19.90
2017-12-24T07:56:05.933Z,21.27
2017-12-24T07:58:40.839Z,23.00
2017-12-24T08:01:15.767Z,20.47
2017-12-24T08:03:50.495Z,21.77
2017-12-24T08:06:25.737Z,18.73
2017-12-24T08:09:00.923Z,24.00
2017-12-24T08:11:35.794Z,20.53
2017-12-24T08:14:10.919Z,20.87
2017-12-24T08:16:45.831Z,22.10
2017-12-24T08:19:20.673Z,21.40
2017-12-24T08:21:55.650Z,22.00
2017-12-24T08:27:49.520Z,20.63
2017-12-24T08:30:24.045Z,18.80
2017-12-24T08:32:58.455Z,18.50
2017-12-24T08:35:33.074Z,17.83
2017-12-24T08:38:08.161Z,19.20
2017-12-24T08:40:43.253Z,20.23
2017-12-24T08:43:18.286Z,19.77
2017-12-24T08:45:52.945Z,20.87
2017-12-24T08:48:28.667Z,17.47
2017-12-24T08:51:03.366Z,20.70
2017-12-24T08:53:38.094Z,20.23
2017-12-24T08:56:12.947Z,18.33
2017-12-24T08:58:47.657Z,17.77
2017-12-24T09:01:22.882Z,17.07
2017-12-24T09:03:57.909Z,13.93
2017-12-24T09:06:32.786Z,18.10
2017-12-24T09:12:27.819Z,17.20
2017-12-24T09:15:02.294Z,18.40
2017-12-24T09:17:37.256Z,18.77
2017-12-24T09:20:12.371Z,15.83
2017-12-24T09:22:47.466Z,16.27
2017-12-24T09:25:22.501Z,17.07
2017-12-24T09:27:57.780Z,16.23
2017-12-24T09:30:32.929Z,13.23
2017-12-24T09:39:07.712Z,15.03
2017-12-24T09:41:42.886Z,14.10
2017-12-24T09:44:17.865Z,14.13
2017-12-24T09:46:53.123Z,14.67
2017-12-24T09:49:27.893Z,13.63
2017-12-24T09:52:02.942Z,13.27
2017-12-24T09:54:37.839Z,13.97
2017-12-24T09:57:12.604Z,11.57
2017-12-24T09:59:47.662Z,11.33
2017-12-24T10:02:22.615Z,10.67
2017-12-24T10:04:57.600Z,10.70
2017-12-24T10:07:32.640Z,10.80
2017-12-24T10:10:07.475Z,9.90
2017-12-24T10:12:42.592Z,10.70
2017-12-24T10:15:18.525Z,10.30
2017-12-24T10:17:53.865Z,11.63
2017-12-24T10:20:28.421Z,12.80
2017-12-24T10:23:04.492Z,12.30
2017-12-24T10:25:39.521Z,13.30
2017-12-24T10:28:14.555Z,13.80
2017-12-24T10:30:48.966Z,12.70
2017-12-24T10:33:24.116Z,14.53
2017-12-24T10:35:59.109Z,18.40
2017-12-24T10:38:34.434Z,15.17
2017-12-24T10:41:09.634Z,18.57
2017-12-24T10:43:47.528Z,18.23
2017-12-24T10:46:22.555Z,18.50
2017-12-24T10:48:57.602Z,18.83
2017-12-24T10:51:32.672Z,19.63
2017-12-24T10:54:07.584Z,20.03
2017-12-24T10:56:42.424Z,21.80
2017-12-24T10:59:17.531Z,20.57
2017-12-24T11:01:52.465Z,21.77
2017-12-24T11:04:27.678Z,20.20
2017-12-24T11:07:02.325Z,21.30
2017-12-24T11:09:37.138Z,17.97
2017-12-24T11:12:11.864Z,22.23
2017-12-24T11:14:46.779Z,21.97
2017-12-24T11:17:21.791Z,23.17
2017-12-24T11:19:56.831Z,21.63
2017-12-24T11:22:32.476Z,22.03
2017-12-24T11:25:08.718Z,19.87
2017-12-24T11:27:44.391Z,25.73
2017-12-24T11:30:19.164Z,29.80
2017-12-24T11:32:54.430Z,25.30
2017-12-24T11:35:29.703Z,22.33
2017-12-24T11:38:04.559Z,25.57
2017-12-24T11:40:40.209Z,23.93
2017-12-24T11:43:15.217Z,23.37
2017-12-24T11:45:50.083Z,23.13
2017-12-24T11:48:25.023Z,23.37
2017-12-24T11:50:59.763Z,25.10
2017-12-24T11:53:35.919Z,21.00
2017-12-24T11:56:11.041Z,24.13
2017-12-24T11:58:46.314Z,23.17
2017-12-24T12:01:21.308Z,19.93
2017-12-24T12:03:56.397Z,23.37
2017-12-24T12:06:31.251Z,22.73
2017-12-24T12:09:06.606Z,21.80
2017-12-24T12:11:41.997Z,21.37
2017-12-24T12:14:16.854Z,21.23
2017-12-24T12:16:52.316Z,17.00
2017-12-24T12:19:27.426Z,19.23
2017-12-24T12:22:02.336Z,18.63
2017-12-24T12:24:37.961Z,19.17
2017-12-24T12:27:13.060Z,18.03
2017-12-24T12:29:47.840Z,18.17
2017-12-24T12:32:22.677Z,18.50
2017-12-24T12:34:57.491Z,17.40
2017-12-24T12:37:32.500Z,17.20
2017-12-24T12:40:07.406Z,16.37
2017-12-24T12:42:42.406Z,14.83
2017-12-24T12:45:17.346Z,16.20
2017-12-24T12:47:52.965Z,16.17
2017-12-24T12:50:28.245Z,14.77
2017-12-24T12:53:03.136Z,16.67
2017-12-24T12:55:38.674Z,15.53
2017-12-24T12:58:13.998Z,16.07
2017-12-24T13:00:48.971Z,15.17
2017-12-24T13:06:43.777Z,14.37
2017-12-24T13:09:18.157Z,14.03
2017-12-24T13:11:53.129Z,15.50
2017-12-24T13:14:28.385Z,15.73
2017-12-24T13:17:03.605Z,14.07
2017-12-24T13:19:38.617Z,14.83
2017-12-24T13:22:13.655Z,15.50
2017-12-24T13:24:48.713Z,15.87
2017-12-24T13:27:23.981Z,14.43
2017-12-24T13:29:58.741Z,14.77
2017-12-24T13:32:33.422Z,13.40
2017-12-24T13:35:08.324Z,14.07
2017-12-24T13:37:43.068Z,12.53
2017-12-24T13:40:17.932Z,12.53
2017-12-24T13:42:52.976Z,11.57
2017-12-24T13:45:27.803Z,11.00
2017-12-24T13:48:02.884Z,11.40
2017-12-24T13:50:37.804Z,11.20
2017-12-24T13:53:12.934Z,11.40
2017-12-24T13:55:48.116Z,10.40
2017-12-24T13:58:23.107Z,10.43
2017-12-24T14:00:58.208Z,10.57
2017-12-24T14:03:33.365Z,10.10
2017-12-24T14:06:08.257Z,9.90
2017-12-24T14:08:42.779Z,8.87
2017-12-24T14:11:17.689Z,6.20
2017-12-24T14:13:52.609Z,6.37
2017-12-24T14:16:27.446Z,6.50
2017-12-24T14:19:03.104Z,5.43
2017-12-24T14:21:38.259Z,5.57
2017-12-24T14:24:13.540Z,6.60
2017-12-24T14:26:48.695Z,6.40
2017-12-24T14:29:23.813Z,5.27
2017-12-24T14:31:58.670Z,6.43
2017-12-24T14:34:33.589Z,6.97
2017-12-24T14:37:08.911Z,5.97
2017-12-24T14:39:43.690Z,5.60
2017-12-24T14:42:18.835Z,5.73
2017-12-24T14:44:53.440Z,6.40
2017-12-24T14:47:28.779Z,6.07
2017-12-24T14:50:03.814Z,6.97
2017-12-24T14:52:38.892Z,5.70
2017-12-24T14:55:13.559Z,7.10
2017-12-24T14:57:48.541Z,7.27
2017-12-24T15:00:23.493Z,5.47
2017-12-24T15:02:58.530Z,6.60
2017-12-24T15:05:33.459Z,8.37
2017-12-24T15:08:08.392Z,8.67
2017-12-24T15:10:43.285Z,9.27
2017-12-24T15:13:18.252Z,9.67
2017-12-24T15:15:53.148Z,7.47
2017-12-24T15:18:28.161Z,8.33
2017-12-24T15:21:03.459Z,7.23
2017-12-24T15:23:42.012Z,6.47
2017-12-24T15:26:16.650Z,8.73
2017-12-24T15:28:51.741Z,7.23
2017-12-24T15:31:26.759Z,7.53
2017-12-24T15:34:01.598Z,7.03
2017-12-24T15:36:36.805Z,6.47
2017-12-24T15:39:12.575Z,5.90
2017-12-24T15:41:47.826Z,5.60
2017-12-24T15:44:28.991Z,5.23
2017-12-24T15:47:03.509Z,4.70
2017-12-24T15:49:38.607Z,4.40
2017-12-24T15:52:13.329Z,3.77
2017-12-24T15:54:48.137Z,4.63
2017-12-24T15:57:22.709Z,4.10
2017-12-24T15:59:57.473Z,3.77
2017-12-24T16:02:32.276Z,3.70
2017-12-24T16:08:30.262Z,2.63
2017-12-24T16:11:04.755Z,2.23
2017-12-24T16:13:39.781Z,3.17
2017-12-24T16:16:14.577Z,2.67
2017-12-24T16:18:49.393Z,3.10
2017-12-24T16:21:25.104Z,2.67
2017-12-24T16:23:59.451Z,1.80
2017-12-24T16:26:34.464Z,2.50
2017-12-24T16:29:09.460Z,3.47
2017-12-24T16:31:44.179Z,3.03
2017-12-24T16:34:19.170Z,2.83
2017-12-24T16:36:53.647Z,3.27
2017-12-24T16:39:28.607Z,2.83
2017-12-24T16:42:03.361Z,2.40
2017-12-24T16:44:38.429Z,2.53
2017-12-24T16:47:13.322Z,2.20
2017-12-24T16:49:48.266Z,2.53
2017-12-24T16:52:23.258Z,2.90
2017-12-24T16:54:58.098Z,2.13
2017-12-24T16:57:32.697Z,2.77
2017-12-24T17:00:07.438Z,2.20
2017-12-24T17:02:42.881Z,2.20
2017-12-24T17:05:18.169Z,1.60
2017-12-24T17:07:52.973Z,1.70
2017-12-24T17:10:29.085Z,2.47
2017-12-24T17:13:03.596Z,1.43
2017-12-24T17:15:38.635Z,1.77
2017-12-24T17:18:13.525Z,1.77
2017-12-24T17:20:48.794Z,1.10
2017-12-24T17:23:23.936Z,1.60
2017-12-24T17:25:58.585Z,1.70
2017-12-24T17:28:33.602Z,1.50
2017-12-24T17:31:08.729Z,1.67
2017-12-24T17:33:43.146Z,1.50
2017-12-24T17:36:17.640Z,1.50
2017-12-24T17:38:52.885Z,1.70
2017-12-24T17:41:27.201Z,2.07
2017-12-24T17:44:02.273Z,2.20
2017-12-24T17:46:37.089Z,1.90
2017-12-24T17:49:17.008Z,2.17
2017-12-24T17:51:51.583Z,1.77
2017-12-24T17:54:26.797Z,2.43
2017-12-24T17:57:01.870Z,2.00
2017-12-24T17:59:37.199Z,2.30
2017-12-24T18:02:11.679Z,2.60
2017-12-24T18:04:46.455Z,2.30
2017-12-24T18:07:21.374Z,2.43
2017-12-24T18:21:56.055Z,1.90
2017-12-24T18:24:31.094Z,2.53
2017-12-24T18:27:06.841Z,2.40
2017-12-24T18:29:41.938Z,2.67
2017-12-24T18:32:16.572Z,2.20
2017-12-24T18:34:52.275Z,2.60
2017-12-24T18:37:26.812Z,2.90
2017-12-24T18:40:04.315Z,2.80
2017-12-24T18:42:39.414Z,2.47
2017-12-24T18:45:13.910Z,2.90
2017-12-24T18:47:49.215Z,2.33
2017-12-24T18:50:23.685Z,2.27
2017-12-24T18:52:58.796Z,2.40
2017-12-24T18:55:33.926Z,2.93
2017-12-24T18:58:08.359Z,2.77
2017-12-24T19:03:42.989Z,2.40
2017-12-24T19:06:17.722Z,2.80
2017-12-24T19:08:52.547Z,2.60
2017-12-24T19:11:27.302Z,3.27
2017-12-24T19:14:02.427Z,3.13
2017-12-24T19:16:37.255Z,3.30
2017-12-24T19:19:11.868Z,4.00
2017-12-24T19:21:46.972Z,4.50
2017-12-24T19:54:21.648Z,4.10
2017-12-24T19:56:57.082Z,3.00
2017-12-24T19:59:32.326Z,4.00
2017-12-24T20:02:08.386Z,3.53
2017-12-24T20:04:42.845Z,4.37
2017-12-24T20:07:17.200Z,5.00
2017-12-24T20:09:52.403Z,4.87
2017-12-24T20:12:25.501Z,4.97
2017-12-24T20:21:00.127Z,5.67
2017-12-24T20:23:33.440Z,5.53
2017-12-24T20:26:05.908Z,5.07
2017-12-24T20:29:04.175Z,5.60
2017-12-24T20:31:30.434Z,4.97
2017-12-24T20:33:57.460Z,4.97
2017-12-24T20:36:23.677Z,4.60
2017-12-24T20:38:49.876Z,4.73
2017-12-24T20:41:16.073Z,4.70
2017-12-24T20:43:45.208Z,5.47
2017-12-24T20:46:14.117Z,4.80
2017-12-24T20:51:43.171Z,4.27
2017-12-24T20:54:12.035Z,5.23
2017-12-24T20:56:40.921Z,5.17
2017-12-24T20:59:09.784Z,4.90
2017-12-24T21:02:07.241Z,5.07
2017-12-24T21:04:36.130Z,5.30
2017-12-24T21:07:05.018Z,5.10
2017-12-24T21:09:33.902Z,3.60
2017-12-24T21:12:02.817Z,4.43
2017-12-24T21:14:31.694Z,4.43
2017-12-24T21:17:01.296Z,3.90
2017-12-24T21:19:30.162Z,4.47
2017-12-24T21:28:17.807Z,5.40
2017-12-24T21:30:47.467Z,5.20
2017-12-24T21:33:16.535Z,4.70
2017-12-24T21:35:45.442Z,6.10
2017-12-24T21:38:14.352Z,4.80
2017-12-24T21:40:43.258Z,4.83
2017-12-24T21:43:12.192Z,5.40
2017-12-24T21:45:41.265Z,5.33
2017-12-24T21:48:09.995Z,5.30
2017-12-24T21:56:32.670Z,4.30
2017-12-24T21:59:01.542Z,3.40
2017-12-24T22:01:30.450Z,3.27
2017-12-24T22:03:59.405Z,3.27
2017-12-24T22:06:28.468Z,3.10
2017-12-24T22:08:57.341Z,2.70
2017-12-24T22:11:26.242Z,2.90
2017-12-24T22:13:55.119Z,2.93
2017-12-24T22:16:29.802Z,2.63
2017-12-24T22:18:58.721Z,2.70
2017-12-24T22:21:27.804Z,3.00
2017-12-24T22:23:56.714Z,2.30
2017-12-24T22:26:25.810Z,2.33
2017-12-24T22:28:54.687Z,2.50
2017-12-24T22:31:23.559Z,2.60
2017-12-24T22:33:52.473Z,2.63
2017-12-24T22:36:21.362Z,2.53
2017-12-24T22:38:50.242Z,2.70
2017-12-24T22:41:19.329Z,2.70
2017-12-24T22:43:48.240Z,2.60
2017-12-24T22:46:17.118Z,2.40
2017-12-24T22:48:46.006Z,2.30
2017-12-24T22:51:15.677Z,2.30
2017-12-24T22:56:38.715Z,2.37
2017-12-24T22:59:07.791Z,1.80
2017-12-24T23:01:36.684Z,2.57
2017-12-24T23:04:08.581Z,3.20
2017-12-24T23:06:37.486Z,3.00
2017-12-24T23:09:06.410Z,3.20
2017-12-24T23:11:36.080Z,3.13
2017-12-24T23:14:05.138Z,3.00
2017-12-24T23:19:28.827Z,2.97
2017-12-24T23:21:57.723Z,2.70
2017-12-24T23:24:26.619Z,2.80
2017-12-24T23:26:55.758Z,2.63
2017-12-24T23:29:24.662Z,1.73
2017-12-24T23:31:53.541Z,1.87
2017-12-24T23:34:22.630Z,1.63
2017-12-24T23:36:51.526Z,2.00
2017-12-24T23:39:20.412Z,2.67
2017-12-24T23:41:49.297Z,3.60
2017-12-24T23:44:18.208Z,3.60
2017-12-24T23:46:47.105Z,4.27
2017-12-24T23:49:16.008Z,4.40
2017-12-24T23:51:44.915Z,4.20
2017-12-24T23:54:13.795Z,4.20
2017-12-24T23:56:42.703Z,5.03
2017-12-24T23:59:11.584Z,4.97
